Time;durP1;ratioP1;P1;durP2;ratioP2;P2;SDS_P1;SDS_P2;PMS_P1;PMS_P2;Temp;Humidity;BMP_temperature;BMP_pressure;BME280_temperature;BME280_humidity;BME280_pressure;Samples;Min_cycle;Max_cycle;Signal;HPM_P1;HPM_P2
2021/05/15 00:00:15;;;;;;;26.13;16.37;;;;;;;11.89;72.39;98153.02;125420;1100;103009;-72
2021/05/15 00:03:02;;;;;;;;;;;;;;;11.87;72.64;98160.31;125595;1104;103116;-72
2021/05/15 00:05:29;;;;;;;27.47;16.97;;;;;;;11.86;72.44;98155.11;125554;1104;103229;-74
2021/05/15 00:07:58;;;;;;;25.43;14.25;;;;;;;11.84;72.29;98160.59;125485;1104;103032;-71
2021/05/15 00:10:25;;;;;;;27.20;16.20;;;;;;;11.81;72.21;98160.05;125533;1099;103091;-71
2021/05/15 00:12:52;;;;;;;30.87;18.07;;;;;;;11.77;72.22;98162.14;125581;1100;103091;-71
2021/05/15 00:15:20;;;;;;;28.25;17.73;;;;;;;11.73;72.52;98161.59;125422;1107;103051;-72
2021/05/15 00:17:47;;;;;;;27.77;17.20;;;;;;;11.71;72.44;98168.88;125351;1107;103120;-72
2021/05/15 00:20:18;;;;;;;29.50;17.33;;;;;;;11.72;72.32;98172.38;125406;1099;103124;-73
2021/05/15 00:22:45;;;;;;;31.83;16.10;;;;;;;11.70;72.39;98167.20;125588;1104;103090;-72
2021/05/15 00:25:17;;;;;;;27.83;16.97;;;;;;;11.71;72.49;98182.20;125450;1107;103183;-73
2021/05/15 00:27:48;;;;;;;28.83;17.03;;;;;;;11.69;72.29;98172.66;125483;1107;103226;-73
2021/05/15 00:30:19;;;;;;;31.47;16.80;;;;;;;11.68;72.53;98178.96;125378;1107;103126;-72
2021/05/15 00:32:50;;;;;;;26.97;16.27;;;;;;;11.68;72.49;98176.30;125510;1104;103094;-73
2021/05/15 00:35:19;;;;;;;28.50;16.43;;;;;;;11.65;72.46;98180.09;125521;1104;102994;-72
2021/05/15 00:37:46;;;;;;;27.07;15.23;;;;;;;11.63;72.50;98179.39;125962;1100;103134;-72
2021/05/15 00:40:13;;;;;;;25.60;15.53;;;;;;;11.62;72.42;98183.86;125450;1100;103142;-72
2021/05/15 00:42:41;;;;;;;24.07;14.77;;;;;;;11.63;72.50;98182.06;125454;1107;103130;-72
2021/05/15 00:45:14;;;;;;;24.87;13.47;;;;;;;11.59;72.31;98186.84;125319;1107;103110;-73
2021/05/15 00:47:43;;;;;;;26.97;14.10;;;;;;;11.57;72.51;98188.80;125414;1100;103092;-73
2021/05/15 00:50:14;;;;;;;25.25;14.10;;;;;;;11.55;72.44;98184.58;125388;1107;103000;-72
2021/05/15 00:52:41;;;;;;;27.10;14.60;;;;;;;11.54;72.43;98193.55;125426;1100;103024;-70
2021/05/15 00:55:15;;;;;;;24.63;14.00;;;;;;;11.52;72.47;98182.19;125358;1100;103266;-72
2021/05/15 00:57:46;;;;;;;24.48;13.23;;;;;;;11.48;72.38;98189.63;125424;1107;103082;-71
2021/05/15 01:00:18;;;;;;;22.47;12.80;;;;;;;11.45;72.40;98192.56;125446;1107;103508;-72
2021/05/15 01:02:45;;;;;;;22.23;12.17;;;;;;;11.42;72.35;98190.17;125429;1107;103126;-72
2021/05/15 01:05:17;;;;;;;21.67;12.00;;;;;;;11.40;72.30;98192.14;125380;1107;103081;-73
2021/05/15 01:07:49;;;;;;;23.83;12.93;;;;;;;11.36;72.39;98198.71;125445;1100;103112;-73
2021/05/15 01:10:20;;;;;;;23.50;12.73;;;;;;;11.34;72.43;98203.33;125410;1107;103216;-72
2021/05/15 01:12:56;;;;;;;22.50;13.13;;;;;;;11.30;72.38;98195.63;125449;1100;103099;-72
2021/05/15 01:15:28;;;;;;;21.47;12.50;;;;;;;11.29;72.64;98204.59;125372;1100;103032;-72
2021/05/15 01:18:01;;;;;;;23.93;12.97;;;;;;;11.28;72.42;98208.23;125437;1107;103048;-72
2021/05/15 01:20:33;;;;;;;22.88;11.83;;;;;;;11.28;72.20;98210.06;125446;1107;103071;-72
2021/05/15 01:23:04;;;;;;;23.27;13.40;;;;;;;11.25;72.48;98208.50;125439;1107;103548;-72
2021/05/15 01:25:31;;;;;;;23.30;13.00;;;;;;;11.25;72.62;98211.16;125430;1107;103031;-70
2021/05/15 01:28:02;;;;;;;23.10;13.25;;;;;;;11.24;72.42;98216.63;125397;1107;103009;-72
2021/05/15 01:30:29;;;;;;;24.17;12.60;;;;;;;11.22;72.71;98216.75;125472;1107;103003;-72
2021/05/15 01:32:56;;;;;;;24.93;13.93;;;;;;;11.23;72.63;98221.10;125454;1107;103015;-70
2021/05/15 01:35:23;;;;;;;22.27;13.60;;;;;;;11.22;72.66;98215.92;125386;1107;103004;-71
2021/05/15 01:37:58;;;;;;;23.43;12.97;;;;;;;11.22;72.59;98219.41;125436;1107;103027;-70
2021/05/15 01:40:29;;;;;;;25.30;14.67;;;;;;;11.22;72.66;98223.91;125396;1100;103071;-70
2021/05/15 01:42:57;;;;;;;24.50;14.47;;;;;;;11.21;72.65;98224.89;125404;1107;103075;-70
2021/05/15 01:45:26;;;;;;;24.63;14.33;;;;;;;11.22;72.74;98226.58;125421;1107;103505;-72
2021/05/15 01:47:54;;;;;;;24.77;13.43;;;;;;;11.23;72.65;98234.41;125402;1100;102848;-72
2021/05/15 01:50:21;;;;;;;23.10;13.53;;;;;;;11.24;72.75;98227.28;125396;1107;103100;-72
2021/05/15 01:52:48;;;;;;;24.95;14.65;;;;;;;11.22;72.63;98230.06;125423;1107;103146;-73
2021/05/15 01:55:24;;;;;;;25.23;13.83;;;;;;;11.21;72.77;98225.72;125419;1107;103029;-72
2021/05/15 01:57:51;;;;;;;26.23;14.17;;;;;;;11.20;72.65;98232.05;125409;1107;103203;-72
2021/05/15 02:00:21;;;;;;;25.07;13.93;;;;;;;11.19;72.62;98230.36;125422;1107;103115;-72
2021/05/15 02:02:49;;;;;;;25.75;14.00;;;;;;;11.19;72.75;98233.03;125564;1104;103025;-71
2021/05/15 02:05:19;;;;;;;28.53;16.77;;;;;;;11.18;72.78;98234.00;125411;1107;103061;-71
2021/05/15 02:07:47;;;;;;;23.67;14.37;;;;;;;11.19;73.05;98237.49;125600;1100;103120;-72
2021/05/15 02:10:14;;;;;;;24.97;14.90;;;;;;;11.15;72.64;98237.77;125443;1105;103067;-72
2021/05/15 02:12:41;;;;;;;26.60;14.67;;;;;;;11.16;72.79;98249.27;125553;1104;103114;-72
2021/05/15 02:15:10;;;;;;;24.73;14.77;;;;;;;11.15;72.80;98235.10;125577;1104;103099;-71
2021/05/15 02:17:37;;;;;;;27.03;15.57;;;;;;;11.14;72.68;98241.40;125584;1104;103091;-71
2021/05/15 02:20:08;;;;;;;26.83;15.77;;;;;;;11.13;72.65;98242.38;125569;1104;102969;-71
2021/05/15 02:22:35;;;;;;;27.53;16.40;;;;;;;11.13;72.69;98236.23;125406;1107;103222;-71
2021/05/15 02:25:07;;;;;;;25.33;16.30;;;;;;;11.11;72.62;98240.84;125346;1105;103087;-72
2021/05/15 02:27:34;;;;;;;27.43;16.23;;;;;;;11.08;72.71;98246.44;125501;1100;103003;-70
2021/05/15 02:30:01;;;;;;;27.10;16.03;;;;;;;11.04;72.75;98237.86;125470;1100;103093;-71
2021/05/15 02:32:28;;;;;;;30.63;17.13;;;;;;;11.02;72.70;98243.33;125574;1100;103030;-70
2021/05/15 02:34:55;;;;;;;28.03;16.67;;;;;;;11.02;72.74;98243.33;126021;1104;103094;-71
2021/05/15 02:37:22;;;;;;;28.70;18.13;;;;;;;11.00;72.68;98247.95;125558;1104;103097;-70
2021/05/15 02:39:52;;;;;;;27.23;17.10;;;;;;;10.97;72.63;98252.70;125544;1104;103147;-70
2021/05/15 02:42:23;;;;;;;27.67;17.03;;;;;;;10.94;72.63;98250.31;125533;1104;103000;-71
2021/05/15 02:44:52;;;;;;;29.47;18.20;;;;;;;10.92;73.05;98246.94;125571;1104;103174;-72
2021/05/15 02:47:26;;;;;;;29.60;17.83;;;;;;;10.88;72.21;98251.67;125459;1104;103045;-73
2021/05/15 02:49:53;;;;;;;29.77;19.00;;;;;;;10.87;72.73;98256.16;125482;1104;103101;-72
2021/05/15 02:52:21;;;;;;;30.80;19.17;;;;;;;10.83;72.64;98257.41;125619;1104;103032;-73
2021/05/15 02:54:55;;;;;;;29.60;18.70;;;;;;;10.81;72.73;98261.16;125575;1100;103118;-72
2021/05/15 02:57:23;;;;;;;31.90;19.07;;;;;;;10.80;72.72;98259.50;125613;1104;103123;-71
2021/05/15 02:59:50;;;;;;;29.03;18.30;;;;;;;10.78;73.17;98269.43;125590;1104;103058;-73
2021/05/15 03:02:17;;;;;;;30.15;18.18;;;;;;;10.78;72.60;98264.94;125551;1104;103117;-72
2021/05/15 03:04:44;;;;;;;33.93;19.47;;;;;;;10.78;72.75;98262.27;125445;1104;103064;-72
2021/05/15 03:07:11;;;;;;;28.60;17.87;;;;;;;10.77;72.65;98267.74;125559;1100;103017;-73
2021/05/15 03:09:38;;;;;;;31.18;18.65;;;;;;;10.75;72.69;98270.52;125551;1104;103083;-72
2021/05/15 03:12:05;;;;;;;31.63;18.57;;;;;;;10.74;72.80;98275.98;125544;1104;103121;-73
2021/05/15 03:14:32;;;;;;;32.60;19.80;;;;;;;10.71;72.83;98274.41;125419;1104;103179;-73
2021/05/15 03:17:00;;;;;;;31.23;18.60;;;;;;;10.69;72.42;98277.22;125661;1100;104112;-71
2021/05/15 03:19:27;;;;;;;29.83;17.87;;;;;;;10.65;72.69;98283.78;125646;1104;103115;-71
2021/05/15 03:21:54;;;;;;;31.40;17.80;;;;;;;10.64;72.73;98281.23;125571;1105;103043;-71
2021/05/15 03:24:21;;;;;;;28.43;17.30;;;;;;;10.63;73.02;98288.38;125511;1104;103021;-72
2021/05/15 03:26:52;;;;;;;27.93;17.00;;;;;;;10.62;72.65;98297.33;125435;1104;103021;-72
2021/05/15 03:29:19;;;;;;;28.67;17.63;;;;;;;10.63;72.78;98293.70;125396;1100;102997;-72
2021/05/15 03:31:46;;;;;;;28.03;17.80;;;;;;;10.62;72.80;98294.67;125599;1104;103001;-72
2021/05/15 03:34:13;;;;;;;30.10;18.93;;;;;;;10.65;72.76;98289.09;125530;1100;103022;-71
2021/05/15 03:36:40;;;;;;;28.40;18.05;;;;;;;10.68;72.88;98294.16;125522;1104;103021;-71
2021/05/15 03:39:08;;;;;;;28.40;17.25;;;;;;;10.69;72.79;98293.18;125446;1107;102996;-71
2021/05/15 03:41:38;;;;;;;32.23;18.00;;;;;;;10.72;72.83;98286.73;125412;1100;103111;-71
2021/05/15 03:44:05;;;;;;;28.10;16.93;;;;;;;10.74;72.90;98290.11;125443;1107;103027;-70
2021/05/15 03:46:33;;;;;;;28.57;18.07;;;;;;;10.76;72.88;98293.48;125434;1107;103097;-71
2021/05/15 03:49:00;;;;;;;27.20;16.15;;;;;;;10.75;72.92;98293.63;125443;1107;103147;-71
2021/05/15 03:51:31;;;;;;;30.77;16.60;;;;;;;10.75;72.91;98293.63;125420;1107;103150;-71
2021/05/15 03:54:02;;;;;;;28.90;17.07;;;;;;;10.76;72.85;98296.14;125393;1100;103005;-71
2021/05/15 03:56:29;;;;;;;26.90;16.53;;;;;;;10.80;72.89;98299.41;125438;1107;103126;-71
2021/05/15 03:58:56;;;;;;;25.83;15.37;;;;;;;10.83;72.88;98301.77;125438;1107;103098;-71
2021/05/15 04:01:23;;;;;;;27.80;15.63;;;;;;;10.83;72.92;98310.61;125416;1107;103065;-71
2021/05/15 04:03:51;;;;;;;28.30;16.87;;;;;;;10.84;72.76;98306.97;125453;1107;102996;-71
2021/05/15 04:06:18;;;;;;;27.00;15.30;;;;;;;10.87;73.05;98312.03;125408;1100;102996;-71
2021/05/15 04:08:45;;;;;;;26.80;15.85;;;;;;;10.89;72.83;98309.23;125475;1107;103120;-72
2021/05/15 04:11:16;;;;;;;25.63;14.40;;;;;;;10.90;72.79;98310.09;125442;1107;103261;-72
2021/05/15 04:16:33;;;;;;;23.93;14.23;;;;;;;10.92;72.80;98318.78;125417;1107;103090;-70
2021/05/15 04:19:03;;;;;;;26.23;15.00;;;;;;;10.92;72.84;98316.95;125415;1107;103029;-71
2021/05/15 04:21:30;;;;;;;24.63;13.97;;;;;;;10.93;72.74;98315.14;125465;1100;103074;-71
2021/05/15 04:23:58;;;;;;;25.30;13.53;;;;;;;10.95;72.88;98313.20;125471;1107;103093;-72
2021/05/15 04:26:25;;;;;;;23.70;13.20;;;;;;;10.97;72.92;98308.59;125400;1107;103003;-71
2021/05/15 04:28:52;;;;;;;25.58;13.90;;;;;;;11.00;73.09;98317.13;125468;1107;103003;-71
2021/05/15 04:31:19;;;;;;;23.87;13.67;;;;;;;11.02;72.89;98319.64;125445;1100;103022;-72
2021/05/15 04:33:46;;;;;;;23.47;13.30;;;;;;;11.05;73.09;98318.55;125495;1107;102996;-71
2021/05/15 04:36:13;;;;;;;22.07;12.30;;;;;;;11.08;73.21;98320.95;125447;1100;103058;-70
2021/05/15 04:38:43;;;;;;;23.00;12.23;;;;;;;11.12;73.02;98327.70;125466;1107;103106;-70
2021/05/15 04:41:10;;;;;;;23.63;12.13;;;;;;;11.17;73.11;98330.80;125429;1107;103000;-71
2021/05/15 04:43:37;;;;;;;23.03;12.07;;;;;;;11.22;72.91;98319.74;125435;1105;103003;-71
2021/05/15 04:46:04;;;;;;;23.77;12.13;;;;;;;11.25;72.83;98327.46;125406;1107;103123;-71
2021/05/15 04:48:37;;;;;;;21.37;11.30;;;;;;;11.28;73.10;98324.53;125394;1107;103118;-71
2021/05/15 04:51:08;;;;;;;23.53;11.95;;;;;;;11.34;73.08;98331.98;125440;1107;103013;-73
2021/05/15 04:53:35;;;;;;;21.40;11.50;;;;;;;11.40;73.04;98330.59;126124;1107;103164;-72
2021/05/15 04:56:03;;;;;;;21.83;10.53;;;;;;;11.47;72.75;98329.08;125326;1108;103000;-70
2021/05/15 04:58:35;;;;;;;21.47;10.77;;;;;;;11.53;72.93;98331.20;125403;1100;103115;-70
2021/05/15 05:01:06;;;;;;;21.90;9.93;;;;;;;11.61;72.88;98334.00;125373;1107;103058;-71
2021/05/15 05:03:37;;;;;;;19.40;8.83;;;;;;;11.68;72.57;98336.13;125413;1107;103190;-70
2021/05/15 05:06:04;;;;;;;20.10;9.37;;;;;;;11.72;72.90;98330.41;125403;1107;103032;-69
2021/05/15 05:08:36;;;;;;;20.40;9.60;;;;;;;11.81;72.88;98341.23;125413;1100;103096;-71
2021/05/15 05:11:04;;;;;;;18.90;9.37;;;;;;;11.89;72.81;98341.36;125502;1107;103024;-73
2021/05/15 05:13:31;;;;;;;18.23;8.40;;;;;;;11.97;72.57;98346.02;125495;1107;103231;-72
2021/05/15 05:15:58;;;;;;;18.00;7.97;;;;;;;12.03;72.81;98348.99;125350;1100;103168;-71
2021/05/15 05:18:25;;;;;;;18.58;8.05;;;;;;;12.09;72.65;98347.58;125523;1100;102999;-71
2021/05/15 05:20:57;;;;;;;16.17;6.30;;;;;;;12.17;72.77;98346.91;125314;1107;103099;-71
2021/05/15 05:23:28;;;;;;;17.83;6.67;;;;;;;12.23;72.42;98348.98;125425;1105;103128;-71
2021/05/15 05:25:55;;;;;;;12.90;5.93;;;;;;;12.31;72.61;98350.97;125548;1104;103278;-72
2021/05/15 05:28:33;;;;;;;14.83;5.60;;;;;;;12.37;72.13;98353.09;125447;1107;103035;-70
2021/05/15 05:31:05;;;;;;;16.40;6.37;;;;;;;12.46;72.57;98357.55;125537;1100;103032;-71
2021/05/15 05:33:37;;;;;;;17.33;5.73;;;;;;;12.54;72.34;98351.53;125337;1100;103084;-71
2021/05/15 05:36:06;;;;;;;12.63;5.27;;;;;;;12.62;72.65;98346.33;125898;1100;103165;-70
2021/05/15 05:38:36;;;;;;;12.03;5.60;;;;;;;12.72;72.44;98350.78;125417;1100;103142;-75
2021/05/15 05:41:03;;;;;;;12.47;4.90;;;;;;;12.84;72.56;98354.16;125290;1107;102998;-71
2021/05/15 05:43:30;;;;;;;10.60;4.70;;;;;;;12.94;72.42;98352.28;125469;1104;103104;-71
2021/05/15 05:45:57;;;;;;;11.03;4.67;;;;;;;13.04;72.35;98358.45;125543;1104;103066;-70
2021/05/15 05:48:24;;;;;;;10.13;4.33;;;;;;;13.12;72.10;98357.71;125426;1107;103075;-70
2021/05/15 05:50:51;;;;;;;9.27;4.30;;;;;;;13.19;72.06;98363.33;125400;1107;103065;-72
2021/05/15 05:53:18;;;;;;;9.60;3.98;;;;;;;13.25;72.12;98357.38;125462;1100;103000;-70
2021/05/15 05:55:46;;;;;;;9.20;3.70;;;;;;;13.31;71.92;98363.98;125398;1100;103091;-70
2021/05/15 05:58:13;;;;;;;7.83;3.60;;;;;;;13.34;71.93;98369.86;125418;1107;103120;-69
2021/05/15 06:00:40;;;;;;;5.50;2.93;;;;;;;13.35;71.84;98368.88;125421;1107;103123;-71
2021/05/15 06:03:07;;;;;;;8.37;3.47;;;;;;;13.37;71.83;98364.23;125384;1107;103094;-69
2021/05/15 06:05:34;;;;;;;7.73;3.33;;;;;;;13.42;71.64;98374.52;125455;1104;103476;-70
2021/05/15 06:08:09;;;;;;;12.55;4.05;;;;;;;13.50;71.69;98373.78;125433;1100;103000;-70
2021/05/15 06:10:39;;;;;;;10.93;3.93;;;;;;;13.59;71.73;98375.57;125353;1107;103086;-70
2021/05/15 06:13:10;;;;;;;8.50;3.70;;;;;;;13.66;71.37;98375.81;125392;1107;103000;-73
2021/05/15 06:15:37;;;;;;;8.67;4.00;;;;;;;13.72;71.43;98382.38;125320;1107;103132;-71
2021/05/15 06:18:05;;;;;;;6.03;3.30;;;;;;;13.77;71.40;98382.78;125345;1104;103000;-71
2021/05/15 06:20:35;;;;;;;5.87;3.33;;;;;;;13.83;71.38;98392.88;125437;1100;103097;-72
2021/05/15 06:23:03;;;;;;;9.23;3.57;;;;;;;13.89;71.16;98383.41;125370;1105;102998;-71
2021/05/15 06:25:33;;;;;;;8.93;3.90;;;;;;;13.94;71.25;98387.34;125419;1100;103093;-73
2021/05/15 06:28:00;;;;;;;6.27;3.40;;;;;;;14.00;71.17;98391.23;125367;1100;102987;-69
2021/05/15 06:30:28;;;;;;;6.43;3.20;;;;;;;14.11;71.15;98393.70;125387;1100;102991;-68
2021/05/15 06:32:55;;;;;;;9.47;3.60;;;;;;;14.21;71.00;98388.27;125487;1104;103049;-70
2021/05/15 06:35:22;;;;;;;6.30;3.27;;;;;;;14.33;70.98;98401.44;125384;1099;103179;-77
2021/05/15 06:37:49;;;;;;;8.57;4.33;;;;;;;14.40;70.81;98392.64;125397;1104;103042;-70
2021/05/15 06:40:16;;;;;;;6.97;3.20;;;;;;;14.51;70.62;98398.76;125447;1104;103139;-70
2021/05/15 06:42:44;;;;;;;10.73;3.48;;;;;;;14.56;70.66;98405.32;125462;1104;103112;-71
2021/05/15 06:45:14;;;;;;;8.33;3.83;;;;;;;14.63;70.73;98402.89;125353;1104;103288;-69
2021/05/15 06:47:41;;;;;;;5.70;3.30;;;;;;;14.72;70.54;98406.50;125340;1100;103015;-71
2021/05/15 06:50:14;;;;;;;9.77;3.87;;;;;;;14.79;70.58;98410.25;125478;1104;103257;-71
2021/05/15 06:52:41;;;;;;;10.17;3.53;;;;;;;14.90;70.30;98411.83;125378;1107;103028;-73
2021/05/15 06:55:09;;;;;;;7.50;3.33;;;;;;;15.04;70.32;98407.74;125517;1100;103122;-71
2021/05/15 06:57:40;;;;;;;9.03;3.70;;;;;;;15.08;70.22;98408.29;125348;1107;103099;-72
2021/05/15 07:00:08;;;;;;;12.27;4.17;;;;;;;16.16;68.76;98404.27;125377;1105;103078;-74
2021/05/15 07:02:35;;;;;;;10.63;4.43;;;;;;;17.61;67.60;98406.42;125437;1100;103550;-73
2021/05/15 07:05:05;;;;;;;10.87;4.43;;;;;;;19.18;67.33;98399.23;125438;1104;103119;-72
2021/05/15 07:07:32;;;;;;;11.23;4.30;;;;;;;20.83;66.83;98396.27;125341;1100;103179;-72
2021/05/15 07:09:59;;;;;;;9.20;4.57;;;;;;;21.66;67.48;98392.08;125463;1104;103092;-71
2021/05/15 07:12:26;;;;;;;13.25;5.68;;;;;;;21.85;67.20;98398.63;125359;1107;103066;-70
2021/05/15 07:14:54;;;;;;;13.70;5.20;;;;;;;22.10;67.89;98406.25;125433;1104;103134;-71
2021/05/15 07:17:25;;;;;;;11.60;5.17;;;;;;;22.05;68.50;98409.55;125548;1104;103129;-71
2021/05/15 07:19:56;;;;;;;9.70;4.43;;;;;;;23.17;67.28;98409.13;125330;1107;103096;-80
2021/05/15 07:22:25;;;;;;;10.57;4.67;;;;;;;23.49;67.03;98411.22;125459;1105;103068;-81
2021/05/15 07:24:58;;;;;;;10.60;4.57;;;;;;;24.75;66.27;98418.23;125457;1104;103123;-80
2021/05/15 07:27:28;;;;;;;11.75;4.78;;;;;;;24.29;67.07;98410.11;125462;1104;103021;-84
2021/05/15 07:29:56;;;;;;;12.63;4.57;;;;;;;24.95;66.64;98413.49;125569;1107;102999;-83
2021/05/15 07:32:26;;;;;;;8.53;4.27;;;;;;;25.86;65.43;98404.05;125566;1100;103107;-79
2021/05/15 07:34:54;;;;;;;13.23;5.10;;;;;;;24.97;66.49;98408.67;125430;1104;103107;-78
2021/05/15 07:37:21;;;;;;;5.53;3.57;;;;;;;24.06;67.09;98405.20;125452;1104;103035;-76
2021/05/15 07:39:48;;;;;;;7.90;4.07;;;;;;;23.91;66.32;98406.30;125471;1104;103154;-72
2021/05/15 07:42:15;;;;;;;10.27;4.43;;;;;;;23.55;65.99;98404.09;125522;1104;103040;-76
2021/05/15 07:44:46;;;;;;;8.57;4.03;;;;;;;24.46;65.34;98402.28;125495;1104;103039;-75
2021/05/15 07:47:13;;;;;;;9.93;4.40;;;;;;;25.49;64.40;98398.59;125498;1104;103129;-78
2021/05/15 07:49:40;;;;;;;8.77;4.10;;;;;;;26.71;64.08;98396.02;125501;1104;103064;-78
2021/05/15 07:52:08;;;;;;;8.58;4.30;;;;;;;27.42;63.75;98398.83;125513;1104;103024;-77
2021/05/15 07:54:39;;;;;;;11.77;4.70;;;;;;;28.00;63.89;98396.28;125492;1099;103035;-76
2021/05/15 07:57:06;;;;;;;8.33;4.00;;;;;;;26.95;63.58;98404.27;125434;1104;103099;-79
2021/05/15 07:59:33;;;;;;;8.37;4.17;;;;;;;27.30;63.07;98400.75;125337;1107;103099;-77
2021/05/15 08:02:00;;;;;;;6.10;3.95;;;;;;;26.36;64.23;98399.47;125475;1100;103099;-82
2021/05/15 08:04:27;;;;;;;12.73;4.90;;;;;;;26.33;63.78;98400.74;125291;1100;103002;-78
2021/05/15 08:06:55;;;;;;;10.00;4.53;;;;;;;25.68;63.61;98402.97;125470;1100;102985;-75
2021/05/15 08:09:23;;;;;;;7.57;4.13;;;;;;;25.29;63.45;98409.64;125397;1105;103020;-77
2021/05/15 08:11:50;;;;;;;10.33;3.80;;;;;;;24.82;63.00;98410.86;125407;1105;103161;-76
2021/05/15 08:14:19;;;;;;;5.87;3.43;;;;;;;25.36;61.38;98408.52;125481;1099;103049;-75
2021/05/15 08:16:47;;;;;;;6.97;3.40;;;;;;;25.00;62.09;98401.94;125402;1100;103157;-77
2021/05/15 08:19:14;;;;;;;10.57;3.43;;;;;;;24.73;61.56;98410.31;125345;1105;103167;-74
2021/05/15 08:21:41;;;;;;;9.60;3.70;;;;;;;24.12;61.42;98408.96;125445;1100;102999;-76
2021/05/15 08:24:09;;;;;;;7.73;3.60;;;;;;;24.66;60.42;98412.20;125466;1104;103102;-79
2021/05/15 08:26:37;;;;;;;7.00;3.57;;;;;;;25.19;59.67;98399.28;125357;1107;103033;-77
2021/05/15 08:29:08;;;;;;;6.33;3.23;;;;;;;25.73;59.60;98401.47;125332;1100;103160;-77
2021/05/15 08:31:39;;;;;;;8.43;3.30;;;;;;;25.83;59.94;98412.67;125441;1104;103023;-74
2021/05/15 08:34:09;;;;;;;6.30;3.00;;;;;;;26.24;59.37;98413.87;125262;1107;103109;-78
2021/05/15 08:36:39;;;;;;;7.67;3.50;;;;;;;26.07;59.68;98408.19;125336;1100;103078;-78
2021/05/15 08:39:07;;;;;;;6.37;3.47;;;;;;;26.56;59.44;98415.54;125427;1104;103161;-77
2021/05/15 08:41:34;;;;;;;7.63;3.87;;;;;;;26.92;58.68;98407.45;125405;1099;103499;-76
2021/05/15 08:44:06;;;;;;;7.05;3.15;;;;;;;27.58;58.47;98408.22;125445;1100;103023;-75
2021/05/15 08:46:40;;;;;;;6.97;3.00;;;;;;;28.02;58.40;98405.06;125370;1100;103072;-78
2021/05/15 08:49:09;;;;;;;5.50;3.20;;;;;;;28.28;58.34;98412.98;125405;1104;103013;-77
2021/05/15 08:51:36;;;;;;;7.93;3.03;;;;;;;27.87;58.30;98416.52;125332;1105;103083;-77
2021/05/15 08:54:05;;;;;;;5.47;3.30;;;;;;;27.32;57.99;98413.09;125308;1106;103286;-75
2021/05/15 08:56:32;;;;;;;6.63;3.03;;;;;;;26.77;57.19;98424.24;125390;1104;103096;-77
2021/05/15 08:58:59;;;;;;;6.03;3.50;;;;;;;25.81;57.18;98421.08;125334;1104;103072;-77
2021/05/15 09:01:27;;;;;;;9.77;3.80;;;;;;;25.35;57.65;98425.91;125386;1107;103097;-79
2021/05/15 09:03:54;;;;;;;8.53;3.93;;;;;;;24.81;55.78;98426.37;125538;1099;103026;-82
2021/05/15 09:06:24;;;;;;;7.10;3.45;;;;;;;23.69;55.82;98424.75;125340;1100;103145;-80
2021/05/15 09:08:52;;;;;;;4.97;3.10;;;;;;;23.39;55.40;98427.94;125257;1105;103068;-77
2021/05/15 09:11:20;;;;;;;10.70;3.67;;;;;;;23.49;56.03;98425.61;125707;1104;103075;-76
2021/05/15 09:13:54;;;;;;;9.47;3.73;;;;;;;23.69;55.82;98413.89;125219;1107;103091;-78
2021/05/15 09:16:23;;;;;;;6.77;3.30;;;;;;;23.38;55.54;98415.42;125236;1100;103001;-73
2021/05/15 09:18:52;;;;;;;10.93;3.90;;;;;;;22.95;55.34;98419.36;125250;1105;103054;-78
2021/05/15 09:21:25;;;;;;;8.70;3.30;;;;;;;22.75;55.35;98422.91;125319;1107;102988;-79
2021/05/15 09:23:53;;;;;;;9.53;4.60;;;;;;;22.51;54.81;98423.47;124967;1100;103095;-79
2021/05/15 09:26:27;;;;;;;7.10;3.40;;;;;;;22.18;54.46;98424.18;125874;1104;103000;-74
2021/05/15 09:28:59;;;;;;;11.80;3.93;;;;;;;21.46;54.12;98432.52;125386;1100;103086;-77
2021/05/15 09:31:42;;;;;;;9.88;3.63;;;;;;;20.85;53.81;98433.92;125454;1100;103445;-77
2021/05/15 09:34:10;;;;;;;7.87;3.17;;;;;;;20.22;53.45;98435.33;125410;1099;103026;-74
2021/05/15 09:36:45;;;;;;;10.43;3.40;;;;;;;20.31;53.55;98433.34;125314;1104;103154;-72
2021/05/15 09:39:22;;;;;;;9.27;3.67;;;;;;;20.65;53.21;98432.67;125357;1100;103032;-72
2021/05/15 09:41:59;;;;;;;8.47;3.17;;;;;;;20.49;53.06;98431.06;125495;1104;103437;-73
2021/05/15 09:44:33;;;;;;;6.83;3.40;;;;;;;20.48;53.59;98431.23;125383;1107;103221;-74
2021/05/15 09:47:03;;;;;;;7.63;3.90;;;;;;;20.34;53.16;98431.11;125506;1100;103046;-72
2021/05/15 09:49:36;;;;;;;7.53;3.53;;;;;;;20.14;53.20;98436.28;125333;1107;103031;-73
2021/05/15 09:52:08;;;;;;;7.60;3.47;;;;;;;19.87;52.94;98440.47;125361;1104;103014;-74
2021/05/15 09:54:41;;;;;;;7.83;3.20;;;;;;;19.96;52.61;98439.38;125504;1104;103006;-72
2021/05/15 09:57:16;;;;;;;7.78;3.90;;;;;;;19.93;52.89;98431.66;125334;1107;103054;-72
2021/05/15 09:59:51;;;;;;;10.10;4.20;;;;;;;19.93;53.04;98440.58;125381;1107;103481;-73
2021/05/15 10:02:21;;;;;;;21.43;4.77;;;;;;;19.71;52.42;98439.63;125331;1104;103054;-74
2021/05/15 10:04:51;;;;;;;8.03;3.70;;;;;;;19.56;52.32;98445.02;125350;1100;103023;-72
2021/05/15 10:07:26;;;;;;;6.20;3.63;;;;;;;19.42;52.14;98448.53;125345;1104;103051;-73
2021/05/15 10:10:01;;;;;;;7.70;3.67;;;;;;;19.17;52.05;98446.91;125338;1104;103000;-73
2021/05/15 10:12:34;;;;;;;9.03;4.03;;;;;;;18.98;52.09;98442.03;125366;1100;103074;-73
2021/05/15 10:15:09;;;;;;;6.07;3.33;;;;;;;19.06;52.13;98443.81;125424;1104;102997;-73
2021/05/15 10:17:37;;;;;;;6.60;3.30;;;;;;;19.13;52.27;98442.08;125461;1100;102993;-73
2021/05/15 10:20:10;;;;;;;6.30;3.40;;;;;;;19.31;52.49;98447.13;125401;1100;103106;-78
2021/05/15 10:22:40;;;;;;;16.27;3.80;;;;;;;19.53;52.30;98442.69;125299;1100;103038;-73
2021/05/15 10:25:17;;;;;;;8.83;4.00;;;;;;;19.73;52.42;98442.16;125338;1100;103010;-75
2021/05/15 10:27:45;;;;;;;7.37;3.37;;;;;;;19.96;52.32;98431.28;125299;1105;103133;-72
2021/05/15 10:30:20;;;;;;;10.57;3.90;;;;;;;20.10;52.46;98429.58;125506;1100;102994;-72
2021/05/15 10:33:01;;;;;;;9.00;3.67;;;;;;;20.28;52.58;98431.02;125253;1100;104487;-71
2021/05/15 10:35:39;;;;;;;9.33;3.40;;;;;;;20.38;52.50;98426.16;125404;1104;103069;-71
2021/05/15 10:38:14;;;;;;;8.17;3.80;;;;;;;20.42;52.35;98422.05;125300;1104;103085;-74
2021/05/15 10:40:53;;;;;;;8.40;4.30;;;;;;;20.43;52.28;98417.47;125207;1107;102998;-72
2021/05/15 10:43:35;;;;;;;8.27;3.53;;;;;;;20.47;52.24;98425.02;125217;1107;103117;-72
2021/05/15 10:46:39;;;;;;;4.53;3.00;;;;;;;20.46;51.97;98419.78;125307;1104;103063;-75
2021/05/15 10:49:19;;;;;;;7.23;3.20;;;;;;;20.42;52.23;98410.39;125262;1100;103119;-72
2021/05/15 10:51:55;;;;;;;7.13;3.80;;;;;;;20.43;52.20;98414.77;125384;1104;103100;-69
2021/05/15 10:54:48;;;;;;;9.60;3.90;;;;;;;20.45;52.10;98416.27;125390;1104;103045;-73
2021/05/15 10:57:31;;;;;;;7.73;3.80;;;;;;;20.49;51.81;98416.70;125194;1107;103081;-73
2021/05/15 11:00:04;;;;;;;10.08;3.63;;;;;;;20.51;51.89;98415.50;125356;1099;102997;-70
2021/05/15 11:02:39;;;;;;;15.23;4.20;;;;;;;20.55;52.01;98412.41;125384;1104;103023;-71
2021/05/15 11:05:14;;;;;;;9.93;3.67;;;;;;;20.59;52.01;98400.17;125275;1107;103026;-71
2021/05/15 11:07:42;;;;;;;8.10;3.67;;;;;;;20.61;51.76;98408.92;125409;1104;103066;-71
2021/05/15 11:10:19;;;;;;;10.13;3.20;;;;;;;20.58;51.62;98398.53;125284;1100;103115;-69
2021/05/15 11:12:52;;;;;;;6.53;3.20;;;;;;;20.58;51.74;98391.24;125482;1104;102997;-71
2021/05/15 11:15:29;;;;;;;25.60;7.50;;;;;;;20.56;51.58;98395.18;125270;1107;103072;-73
2021/05/15 11:18:04;;;;;;;8.30;3.80;;;;;;;20.53;51.77;98399.94;125476;1104;102996;-72
2021/05/15 11:20:47;;;;;;;7.07;3.47;;;;;;;20.44;51.36;98398.38;125355;1100;104624;-71
2021/05/15 11:23:24;;;;;;;9.23;3.40;;;;;;;20.31;51.46;98399.08;125316;1105;103091;-72